Time;durP1;ratioP1;P1;durP2;ratioP2;P2;SDS_P1;SDS_P2;PMS_P1;PMS_P2;Temp;Humidity;BMP_temperature;BMP_pressure;BME280_temperature;BME280_humidity;BME280_pressure;Samples;Min_cycle;Max_cycle;Signal;HPM_P1;HPM_P2
2023/01/04 00:01:06;;;;;;;3.65;0.95;;;7.50;99.90;;;;;;4966795;28;20026;-80
2023/01/04 00:03:31;;;;;;;5.50;1.10;;;7.40;99.90;;;;;;4978873;28;20083;-80
2023/01/04 00:05:57;;;;;;;4.47;1.00;;;7.50;99.90;;;;;;4986812;28;20492;-79
2023/01/04 00:08:23;;;;;;;3.00;0.35;;;7.50;99.90;;;;;;4961126;28;20033;-79
2023/01/04 00:10:49;;;;;;;3.65;1.30;;;7.50;99.90;;;;;;4989984;28;20493;-80
2023/01/04 00:13:14;;;;;;;5.30;1.67;;;7.50;99.90;;;;;;4984934;28;20148;-80
2023/01/04 00:15:40;;;;;;;4.15;1.20;;;7.60;99.90;;;;;;4984214;28;20041;-79
2023/01/04 00:18:05;;;;;;;4.03;0.75;;;7.60;99.90;;;;;;4980697;28;20045;-80
2023/01/04 00:20:31;;;;;;;0.85;0.38;;;7.60;99.90;;;;;;4987563;28;20030;-80
2023/01/04 00:22:57;;;;;;;2.97;0.70;;;7.60;99.90;;;;;;4980888;28;20072;-79
2023/01/04 00:25:22;;;;;;;2.17;0.75;;;7.60;99.90;;;;;;5003548;28;20034;-79
2023/01/04 00:27:49;;;;;;;1.45;0.80;;;7.70;99.90;;;;;;4998535;28;20041;-79
2023/01/04 00:30:16;;;;;;;5.32;0.82;;;7.70;99.90;;;;;;4972509;28;20037;-80
2023/01/04 00:32:42;;;;;;;4.90;0.77;;;7.70;99.90;;;;;;4986770;28;20494;-79
2023/01/04 00:35:08;;;;;;;1.50;0.50;;;7.70;99.90;;;;;;4997816;28;20545;-80
2023/01/04 00:37:34;;;;;;;6.35;1.13;;;7.80;99.90;;;;;;4978522;28;20398;-79
2023/01/04 00:39:59;;;;;;;2.13;0.77;;;7.80;99.90;;;;;;4982795;28;20042;-80
2023/01/04 00:42:25;;;;;;;3.40;1.10;;;7.80;99.90;;;;;;4975636;28;20073;-79
2023/01/04 00:44:50;;;;;;;3.67;0.50;;;7.80;99.90;;;;;;4987225;28;20041;-79
2023/01/04 00:47:16;;;;;;;5.10;0.77;;;7.80;99.90;;;;;;4983068;28;20049;-79
2023/01/04 00:49:41;;;;;;;4.32;0.70;;;7.90;99.90;;;;;;4995902;28;20030;-79
2023/01/04 00:52:10;;;;;;;4.07;1.00;;;7.90;99.90;;;;;;4982068;28;20038;-79
2023/01/04 00:54:35;;;;;;;3.33;0.75;;;7.90;99.90;;;;;;5009057;28;20045;-79
2023/01/04 00:57:01;;;;;;;2.83;0.85;;;7.90;99.90;;;;;;4987859;28;20030;-80
2023/01/04 00:59:27;;;;;;;3.83;1.00;;;7.90;99.90;;;;;;4968779;28;20053;-81
2023/01/04 01:01:52;;;;;;;3.72;1.45;;;7.90;99.90;;;;;;4991541;28;20609;-84
2023/01/04 01:04:20;;;;;;;7.75;1.38;;;7.90;99.90;;;;;;4978367;28;21171;-84
2023/01/04 01:06:46;;;;;;;7.35;1.27;;;7.80;99.90;;;;;;4988534;28;20084;-83
2023/01/04 01:09:12;;;;;;;3.40;0.73;;;7.90;99.90;;;;;;4983884;28;20030;-84
2023/01/04 01:11:39;;;;;;;2.58;1.00;;;7.80;99.90;;;;;;4980492;28;20034;-85
2023/01/04 01:14:04;;;;;;;2.30;0.80;;;7.90;99.90;;;;;;4984958;28;20044;-85
2023/01/04 01:16:30;;;;;;;12.27;1.15;;;7.90;99.90;;;;;;4983533;28;20386;-85
2023/01/04 01:18:55;;;;;;;6.82;1.00;;;7.80;99.90;;;;;;4993307;28;20493;-84
2023/01/04 01:21:22;;;;;;;5.53;1.10;;;7.80;99.90;;;;;;4991407;28;20113;-85
2023/01/04 01:23:48;;;;;;;4.40;0.88;;;7.80;99.90;;;;;;4991730;28;20081;-85
2023/01/04 01:26:16;;;;;;;1.33;0.45;;;7.80;99.90;;;;;;4969604;28;20042;-85
2023/01/04 01:28:41;;;;;;;5.78;0.80;;;7.80;99.90;;;;;;5005406;28;20358;-85
2023/01/04 01:31:26;;;;;;;3.70;1.20;;;7.80;99.90;;;;;;5001339;28;20026;-84
2023/01/04 01:33:52;;;;;;;3.28;0.90;;;7.70;99.90;;;;;;4990489;28;20390;-85
2023/01/04 01:36:18;;;;;;;3.58;0.80;;;7.70;99.90;;;;;;4972892;28;20112;-84
2023/01/04 01:38:44;;;;;;;7.35;1.23;;;7.70;99.90;;;;;;4989267;28;20029;-84
2023/01/04 01:41:19;;;;;;;8.50;1.15;;;7.70;99.90;;;;;;5003994;28;20585;-84
2023/01/04 01:43:53;;;;;;;6.18;1.15;;;7.70;99.90;;;;;;4999547;28;20038;-84
2023/01/04 01:46:38;;;;;;;5.90;0.90;;;7.60;99.90;;;;;;5006093;28;20034;-84
2023/01/04 01:49:11;;;;;;;3.80;0.57;;;7.70;99.90;;;;;;5006175;28;20478;-84
2023/01/04 01:51:36;;;;;;;2.55;0.80;;;7.70;99.90;;;;;;4990540;28;20061;-84
2023/01/04 01:54:06;;;;;;;4.40;1.10;;;7.60;99.90;;;;;;4986311;28;20097;-84
2023/01/04 01:56:32;;;;;;;1.98;0.60;;;7.60;99.90;;;;;;4989396;28;20560;-84
2023/01/04 01:58:58;;;;;;;8.90;1.05;;;7.60;99.90;;;;;;4977310;28;20041;-85
2023/01/04 02:01:23;;;;;;;4.80;0.65;;;7.70;99.90;;;;;;4990821;28;20490;-84
2023/01/04 02:03:49;;;;;;;6.05;1.52;;;7.70;99.90;;;;;;4987776;28;20034;-84
2023/01/04 02:06:26;;;;;;;0.95;0.32;;;7.60;99.90;;;;;;4985695;28;20139;-84
2023/01/04 02:08:51;;;;;;;2.53;1.05;;;7.70;99.90;;;;;;4981267;28;20121;-84
2023/01/04 02:11:17;;;;;;;4.28;0.95;;;7.60;99.90;;;;;;4984158;28;20118;-84
2023/01/04 02:17:01;;;;;;;3.53;0.93;;;7.70;99.90;;;;;;5001264;28;20102;-84
2023/01/04 02:19:45;;;;;;;3.13;0.90;;;7.60;99.90;;;;;;5000200;28;20033;-85
2023/01/04 02:22:34;;;;;;;9.77;1.08;;;7.70;99.90;;;;;;5005862;28;20038;-84
2023/01/04 02:25:37;;;;;;;4.32;1.00;;;7.60;99.90;;;;;;4970131;28;20033;-85
2023/01/04 02:28:14;;;;;;;6.25;1.25;;;7.60;99.90;;;;;;5005773;28;20486;-84
2023/01/04 02:31:07;;;;;;;5.90;1.45;;;7.60;99.90;;;;;;4988341;28;20119;-84
2023/01/04 02:33:46;;;;;;;3.83;1.08;;;7.60;99.90;;;;;;5004636;28;20125;-85
2023/01/04 02:36:45;;;;;;;5.43;0.60;;;7.60;99.90;;;;;;5000620;28;20030;-84
2023/01/04 02:39:20;;;;;;;4.90;0.57;;;7.60;99.90;;;;;;4999206;28;20042;-84
2023/01/04 02:41:51;;;;;;;4.40;0.95;;;7.70;99.90;;;;;;4987726;28;20061;-85
2023/01/04 02:44:58;;;;;;;3.63;0.63;;;7.60;99.90;;;;;;5005000;28;20022;-85
2023/01/04 02:50:34;;;;;;;4.07;0.60;;;7.70;99.90;;;;;;5003053;28;20065;-85
2023/01/04 02:53:11;;;;;;;2.15;0.30;;;7.70;99.90;;;;;;5004785;28;20038;-85
2023/01/04 02:55:39;;;;;;;1.92;0.60;;;7.70;99.90;;;;;;4993327;28;20038;-85
2023/01/04 02:58:29;;;;;;;4.47;0.82;;;7.70;99.90;;;;;;5014778;28;20038;-85
2023/01/04 03:07:22;;;;;;;4.88;1.23;;;7.70;99.90;;;;;;5005414;28;20041;-85
2023/01/04 03:09:49;;;;;;;2.70;0.93;;;7.70;99.90;;;;;;4985786;28;20045;-85
2023/01/04 03:12:34;;;;;;;3.03;1.17;;;7.70;99.90;;;;;;4982140;28;20030;-85
2023/01/04 03:15:26;;;;;;;4.20;1.38;;;7.80;99.90;;;;;;4989243;28;20096;-85
2023/01/04 03:18:07;;;;;;;1.92;0.52;;;7.80;99.90;;;;;;4989419;28;20036;-85
2023/01/04 03:20:32;;;;;;;4.20;0.80;;;7.80;99.90;;;;;;4971926;28;20037;-84
2023/01/04 03:37:24;;;;;;;0.98;0.75;;;7.80;99.90;;;;;;5001669;28;20040;-84
2023/01/04 03:49:22;;;;;;;1.35;0.60;;;8.00;99.90;;;;;;4982335;28;20036;-84
2023/01/04 03:51:48;;;;;;;1.13;0.57;;;8.00;99.90;;;;;;4982221;28;20533;-84
2023/01/04 03:54:22;;;;;;;5.38;1.17;;;8.00;99.90;;;;;;4987715;28;20042;-85
2023/01/04 03:56:48;;;;;;;6.47;0.80;;;8.00;99.90;;;;;;4978439;28;20402;-85
2023/01/04 03:59:13;;;;;;;1.15;0.70;;;8.00;99.90;;;;;;4988615;28;20032;-85
2023/01/04 04:01:39;;;;;;;2.85;0.93;;;8.00;99.90;;;;;;4981901;28;20065;-85
2023/01/04 04:09:33;;;;;;;3.08;0.82;;;8.00;99.90;;;;;;4990464;28;20509;-85
2023/01/04 04:11:58;;;;;;;1.15;0.50;;;8.10;99.90;;;;;;4998760;28;20026;-85
2023/01/04 04:14:24;;;;;;;3.17;0.90;;;8.10;99.90;;;;;;4980162;28;20026;-86
2023/01/04 04:16:49;;;;;;;1.50;0.80;;;8.10;99.90;;;;;;4981928;28;20039;-87
2023/01/04 04:19:15;;;;;;;4.57;0.68;;;8.10;99.90;;;;;;4988046;28;20087;-86
2023/01/04 04:21:40;;;;;;;3.58;1.20;;;8.10;99.90;;;;;;4998946;28;20054;-85
2023/01/04 04:24:06;;;;;;;3.95;1.38;;;8.10;99.90;;;;;;4993684;28;20096;-85
2023/01/04 04:26:32;;;;;;;1.08;0.35;;;8.10;99.90;;;;;;4987503;28;20155;-85
2023/01/04 04:28:57;;;;;;;3.25;0.70;;;8.10;99.90;;;;;;4989125;28;20036;-82
2023/01/04 04:31:23;;;;;;;5.32;1.13;;;8.10;99.90;;;;;;4974940;28;20030;-82
2023/01/04 04:33:48;;;;;;;2.97;0.40;;;8.10;99.90;;;;;;4972237;28;20026;-83
2023/01/04 04:36:14;;;;;;;2.40;0.90;;;8.10;99.90;;;;;;4980912;28;20508;-82
2023/01/04 04:38:39;;;;;;;0.93;0.57;;;8.20;99.90;;;;;;5002634;28;20038;-82
2023/01/04 04:43:51;;;;;;;3.72;1.05;;;8.20;99.90;;;;;;4978134;28;20152;-83
2023/01/04 04:46:17;;;;;;;2.40;0.80;;;8.20;99.90;;;;;;4999635;28;20128;-82
2023/01/04 04:48:43;;;;;;;1.02;0.45;;;8.20;99.90;;;;;;4997406;28;20129;-83
2023/01/04 04:51:08;;;;;;;5.63;0.95;;;8.20;99.90;;;;;;4993067;28;20182;-82
2023/01/04 04:53:34;;;;;;;0.57;0.43;;;8.20;99.90;;;;;;4969264;28;20037;-83
2023/01/04 04:55:59;;;;;;;1.50;0.63;;;8.20;99.90;;;;;;5001474;28;20433;-83
2023/01/04 04:58:25;;;;;;;1.77;0.50;;;8.20;99.90;;;;;;4973835;28;20037;-82
2023/01/04 05:00:51;;;;;;;5.57;0.70;;;8.20;99.90;;;;;;4972106;28;20470;-83
2023/01/04 05:03:16;;;;;;;0.95;0.68;;;8.30;99.90;;;;;;5002608;28;20038;-83
2023/01/04 05:05:42;;;;;;;3.08;0.60;;;8.30;99.90;;;;;;4986914;28;20041;-82
2023/01/04 05:08:07;;;;;;;2.22;0.73;;;8.30;99.90;;;;;;4975756;28;20557;-83
2023/01/04 05:10:33;;;;;;;1.17;0.88;;;8.30;99.90;;;;;;4982189;28;20479;-82
2023/01/04 05:12:58;;;;;;;0.70;0.52;;;8.30;99.90;;;;;;4987600;28;20557;-82
2023/01/04 05:15:32;;;;;;;2.17;0.88;;;8.30;99.90;;;;;;4972248;28;20045;-83
2023/01/04 05:17:58;;;;;;;1.33;0.70;;;8.30;99.90;;;;;;4969892;28;20046;-82
2023/01/04 05:20:23;;;;;;;0.57;0.50;;;8.30;99.90;;;;;;4981955;28;20397;-82
2023/01/04 05:22:49;;;;;;;1.17;0.60;;;8.30;99.90;;;;;;4986908;28;20084;-82
2023/01/04 05:25:15;;;;;;;2.63;0.40;;;8.40;99.90;;;;;;5001330;28;20394;-82
2023/01/04 05:27:40;;;;;;;0.30;0.30;;;8.40;99.90;;;;;;4970752;28;20033;-82
2023/01/04 05:32:50;;;;;;;2.65;0.30;;;8.40;99.90;;;;;;4988251;28;20508;-82
2023/01/04 05:35:17;;;;;;;0.15;0.15;;;8.40;99.90;;;;;;4984908;28;20030;-83
2023/01/04 05:37:43;;;;;;;1.88;0.32;;;8.50;99.90;;;;;;4985772;28;20066;-82
2023/01/04 05:40:09;;;;;;;0.03;0.03;;;8.50;99.90;;;;;;4639305;28;9999844;-82
2023/01/04 05:42:35;;;;;;;0.30;0.20;;;8.50;99.90;;;;;;4982314;28;20026;-83
2023/01/04 05:45:01;;;;;;;1.10;0.40;;;8.50;99.90;;;;;;4984225;28;20120;-82
2023/01/04 05:47:27;;;;;;;0.95;0.30;;;8.60;99.90;;;;;;4967958;28;20113;-82
2023/01/04 05:49:52;;;;;;;0.40;0.30;;;8.60;99.90;;;;;;4968047;28;20030;-82
2023/01/04 05:52:18;;;;;;;0.40;0.30;;;8.60;99.90;;;;;;4969347;28;20668;-82
2023/01/04 05:54:44;;;;;;;2.45;0.50;;;8.60;99.90;;;;;;4998639;28;20038;-82
2023/01/04 05:57:09;;;;;;;1.38;1.20;;;8.70;99.90;;;;;;4975922;28;20034;-82
2023/01/04 05:59:35;;;;;;;4.40;0.52;;;8.60;99.90;;;;;;4968093;28;20022;-82
2023/01/04 06:02:00;;;;;;;0.73;0.40;;;8.70;99.90;;;;;;4993299;28;20162;-82
2023/01/04 06:04:26;;;;;;;0.22;0.20;;;8.70;99.90;;;;;;4975914;28;20085;-82
2023/01/04 06:06:52;;;;;;;0.43;0.30;;;8.70;99.90;;;;;;4991351;28;20533;-83
2023/01/04 06:09:17;;;;;;;2.80;0.70;;;8.70;99.90;;;;;;4996894;28;20033;-82
2023/01/04 06:11:43;;;;;;;1.77;0.50;;;8.80;99.90;;;;;;4986117;28;20434;-81
2023/01/04 06:14:10;;;;;;;0.77;0.50;;;8.80;99.90;;;;;;4948784;28;20064;-82
2023/01/04 06:16:36;;;;;;;0.50;0.50;;;8.80;99.90;;;;;;4979325;28;20166;-82
2023/01/04 06:19:02;;;;;;;0.45;0.30;;;8.90;99.90;;;;;;4990215;28;20386;-82
2023/01/04 06:21:28;;;;;;;1.17;0.60;;;8.90;99.90;;;;;;4989111;28;20041;-82
2023/01/04 06:23:53;;;;;;;0.90;0.60;;;8.90;99.90;;;;;;5004537;28;20537;-82
2023/01/04 06:26:22;;;;;;;0.30;0.20;;;8.90;99.90;;;;;;4984966;28;20477;-82
2023/01/04 06:28:47;;;;;;;0.77;0.35;;;9.00;99.90;;;;;;5020688;28;20037;-81
2023/01/04 06:31:13;;;;;;;2.30;0.30;;;9.00;99.90;;;;;;4974350;28;20034;-81
2023/01/04 06:33:39;;;;;;;0.75;0.32;;;9.00;99.90;;;;;;4977619;28;20417;-82
2023/01/04 06:36:05;;;;;;;0.68;0.40;;;9.00;99.90;;;;;;4973371;28;20026;-82
2023/01/04 06:38:31;;;;;;;0.20;0.20;;;9.00;99.90;;;;;;4989879;28;20444;-83
2023/01/04 06:40:56;;;;;;;0.98;0.20;;;9.10;99.90;;;;;;4974337;28;20140;-82
2023/01/04 06:43:22;;;;;;;0.52;0.30;;;9.10;99.90;;;;;;4976734;28;20037;-82
2023/01/04 06:45:47;;;;;;;0.13;0.10;;;9.10;99.90;;;;;;4987162;28;20038;-82
2023/01/04 06:48:13;;;;;;;0.22;0.20;;;9.10;99.90;;;;;;4990364;28;20042;-82
2023/01/04 06:50:38;;;;;;;1.27;0.20;;;9.10;99.90;;;;;;4989071;28;20113;-82
2023/01/04 06:53:04;;;;;;;1.02;0.40;;;9.10;99.90;;;;;;4985633;28;20034;-82
2023/01/04 06:55:30;;;;;;;0.20;0.20;;;9.20;99.90;;;;;;4989541;28;20026;-82
2023/01/04 06:57:56;;;;;;;1.73;0.40;;;9.20;99.90;;;;;;4995547;28;20041;-83
2023/01/04 07:00:22;;;;;;;0.60;0.50;;;9.20;99.90;;;;;;4999821;28;20352;-82
2023/01/04 07:02:48;;;;;;;0.20;0.20;;;9.20;99.90;;;;;;5000092;28;20489;-82
2023/01/04 07:05:13;;;;;;;1.52;0.32;;;9.30;99.90;;;;;;4985252;28;20041;-82
2023/01/04 07:07:39;;;;;;;0.55;0.38;;;9.30;99.90;;;;;;4981828;28;20062;-82
2023/01/04 07:10:05;;;;;;;2.30;0.40;;;9.20;99.90;;;;;;4981674;28;20041;-82
2023/01/04 07:12:31;;;;;;;0.25;0.17;;;9.30;99.90;;;;;;4979685;28;20078;-82
2023/01/04 07:14:56;;;;;;;0.40;0.30;;;9.50;99.90;;;;;;4986651;28;20466;-81
2023/01/04 07:17:22;;;;;;;0.20;0.20;;;9.40;99.90;;;;;;4999909;28;20060;-82
2023/01/04 07:19:47;;;;;;;0.30;0.20;;;9.50;99.90;;;;;;4989362;28;20049;-82
2023/01/04 07:22:13;;;;;;;0.30;0.30;;;9.50;99.90;;;;;;4982164;28;20098;-82
2023/01/04 07:24:39;;;;;;;1.95;0.60;;;9.50;99.90;;;;;;4974758;28;20093;-82
2023/01/04 07:27:04;;;;;;;1.13;0.10;;;9.40;99.90;;;;;;4975156;28;20117;-83
2023/01/04 07:29:30;;;;;;;0.22;0.20;;;9.50;99.90;;;;;;4988674;28;20529;-83
2023/01/04 07:31:55;;;;;;;0.20;0.20;;;9.50;99.90;;;;;;4976831;28;20469;-83
2023/01/04 07:34:22;;;;;;;2.28;0.40;;;9.50;99.90;;;;;;4978118;28;20079;-83
2023/01/04 07:36:48;;;;;;;0.50;0.30;;;9.50;99.90;;;;;;4985124;28;20185;-83
2023/01/04 07:39:14;;;;;;;0.15;0.15;;;9.50;99.90;;;;;;4975554;28;20109;-82
2023/01/04 07:41:40;;;;;;;0.10;0.10;;;9.50;99.90;;;;;;4974846;28;20026;-84
2023/01/04 07:44:06;;;;;;;1.25;0.30;;;9.60;99.90;;;;;;4986054;28;20109;-85
2023/01/04 07:46:35;;;;;;;3.40;0.40;;;9.60;99.90;;;;;;4985978;28;20037;-86
2023/01/04 07:49:22;;;;;;;0.00;0.00;;;9.60;99.90;;;;;;4975182;28;20049;-87
2023/01/04 07:51:48;;;;;;;0.50;0.35;;;9.60;99.90;;;;;;5003621;28;20481;-82
2023/01/04 07:54:16;;;;;;;1.10;0.35;;;9.60;99.90;;;;;;4972966;28;20037;-83
2023/01/04 07:56:43;;;;;;;0.22;0.20;;;9.60;99.90;;;;;;4989060;28;20037;-83
2023/01/04 07:59:09;;;;;;;1.92;0.45;;;9.70;99.90;;;;;;4991846;28;20048;-83
2023/01/04 08:01:36;;;;;;;0.10;0.10;;;9.70;99.90;;;;;;4998938;28;20033;-83
2023/01/04 08:04:02;;;;;;;0.40;0.28;;;9.80;99.90;;;;;;5004106;28;20478;-83
2023/01/04 08:06:27;;;;;;;0.10;0.10;;;9.80;99.90;;;;;;4984973;28;20041;-83
2023/01/04 08:08:53;;;;;;;1.75;0.32;;;9.90;99.90;;;;;;4984609;28;20497;-83
2023/01/04 08:11:21;;;;;;;0.57;0.30;;;9.80;99.90;;;;;;4997317;28;20512;-83
2023/01/04 08:13:46;;;;;;;0.30;0.30;;;9.80;99.90;;;;;;4972236;28;20085;-83
2023/01/04 08:16:20;;;;;;;0.35;0.20;;;9.80;99.90;;;;;;4985294;28;20038;-83
2023/01/04 08:18:47;;;;;;;0.30;0.22;;;9.80;99.90;;;;;;4975101;28;20045;-83
2023/01/04 08:21:12;;;;;;;0.88;0.38;;;9.80;99.90;;;;;;5002803;28;20038;-83
2023/01/04 08:23:38;;;;;;;0.17;0.17;;;9.90;99.90;;;;;;4983877;28;20030;-83
2023/01/04 08:26:08;;;;;;;0.17;0.17;;;9.90;99.90;;;;;;4990600;28;20053;-83
2023/01/04 08:28:34;;;;;;;0.20;0.20;;;9.90;99.90;;;;;;4965557;28;20052;-83
2023/01/04 08:31:03;;;;;;;0.35;0.15;;;10.00;99.90;;;;;;4991640;28;20046;-83
2023/01/04 08:33:29;;;;;;;4.78;0.52;;;10.00;99.90;;;;;;4980955;28;20058;-83
2023/01/04 08:36:25;;;;;;;0.50;0.30;;;10.00;99.90;;;;;;4976232;28;20068;-83
2023/01/04 08:38:53;;;;;;;2.58;0.30;;;10.20;99.90;;;;;;4981242;28;20120;-83
2023/01/04 08:41:18;;;;;;;1.00;0.25;;;10.10;99.90;;;;;;4997962;28;20103;-83
2023/01/04 08:43:44;;;;;;;0.20;0.20;;;10.10;99.90;;;;;;4996360;28;20457;-83
2023/01/04 08:46:10;;;;;;;0.40;0.30;;;10.10;99.90;;;;;;4970686;28;20034;-83
2023/01/04 08:48:36;;;;;;;0.73;0.40;;;10.30;99.90;;;;;;4982951;28;20102;-83
2023/01/04 08:51:03;;;;;;;1.02;0.30;;;10.20;99.90;;;;;;4968677;28;20123;-83
2023/01/04 08:53:29;;;;;;;1.95;0.30;;;10.20;99.90;;;;;;4986271;28;20108;-83
2023/01/04 08:55:54;;;;;;;0.80;0.38;;;10.30;99.90;;;;;;5000784;28;20645;-83
2023/01/04 08:58:22;;;;;;;0.22;0.20;;;10.30;99.90;;;;;;4982828;28;20068;-83
2023/01/04 09:00:48;;;;;;;0.20;0.20;;;10.30;99.90;;;;;;4984869;28;20506;-83
2023/01/04 09:03:14;;;;;;;0.47;0.30;;;10.30;99.90;;;;;;4983096;28;20032;-83
2023/01/04 09:05:39;;;;;;;0.60;0.20;;;10.40;99.90;;;;;;5000141;28;20037;-83
2023/01/04 09:08:05;;;;;;;1.23;0.73;;;10.40;99.90;;;;;;4976655;28;20371;-83
2023/01/04 09:10:31;;;;;;;1.08;0.20;;;10.40;99.90;;;;;;4995616;28;20045;-83
2023/01/04 09:12:56;;;;;;;1.05;0.30;;;10.40;99.90;;;;;;4977916;28;20065;-83
2023/01/04 09:15:22;;;;;;;2.38;0.50;;;10.40;99.90;;;;;;4973914;28;20076;-82
2023/01/04 09:17:50;;;;;;;0.55;0.25;;;10.50;99.90;;;;;;4990606;28;20406;-82
2023/01/04 09:20:16;;;;;;;0.52;0.20;;;10.40;99.90;;;;;;4983402;28;20030;-83
2023/01/04 09:22:42;;;;;;;3.95;0.40;;;10.50;99.90;;;;;;4977280;28;20030;-85
2023/01/04 09:25:12;;;;;;;1.00;0.20;;;10.60;99.90;;;;;;4991183;28;20125;-86
2023/01/04 09:27:38;;;;;;;1.58;0.32;;;10.50;99.90;;;;;;4983179;28;20106;-85
2023/01/04 09:30:05;;;;;;;2.28;0.40;;;10.50;99.90;;;;;;4965730;28;20513;-85
2023/01/04 09:32:30;;;;;;;1.02;0.20;;;10.60;99.90;;;;;;4976586;28;20383;-86
2023/01/04 09:34:56;;;;;;;0.30;0.20;;;10.50;99.90;;;;;;5014091;28;20064;-84
2023/01/04 09:37:21;;;;;;;0.20;0.20;;;10.60;99.90;;;;;;4956473;28;20037;-85
2023/01/04 09:39:47;;;;;;;0.40;0.38;;;10.60;99.90;;;;;;4990654;28;20042;-84
2023/01/04 09:42:25;;;;;;;1.23;0.32;;;10.50;99.90;;;;;;4972227;28;20038;-83
2023/01/04 09:44:53;;;;;;;0.17;0.17;;;10.50;99.90;;;;;;5003053;28;20041;-84
2023/01/04 09:47:38;;;;;;;2.03;0.75;;;10.50;99.90;;;;;;5005503;28;20034;-85
2023/01/04 09:50:12;;;;;;;0.25;0.20;;;10.60;99.90;;;;;;4990125;28;20038;-85
2023/01/04 09:52:55;;;;;;;0.88;0.30;;;10.60;99.90;;;;;;5004555;28;20113;-84
2023/01/04 09:55:30;;;;;;;2.10;0.75;;;10.50;99.90;;;;;;4974958;28;20546;-84
2023/01/04 09:58:26;;;;;;;2.00;0.65;;;10.50;99.90;;;;;;4984547;28;20038;-86
2023/01/04 10:01:04;;;;;;;0.22;0.10;;;10.50;99.90;;;;;;4982308;28;20026;-86
2023/01/04 10:03:31;;;;;;;0.32;0.32;;;10.50;99.90;;;;;;4985652;28;20125;-87
2023/01/04 10:05:59;;;;;;;0.30;0.20;;;10.50;99.90;;;;;;5003046;28;20566;-87
2023/01/04 10:08:30;;;;;;;8.93;0.40;;;10.40;99.90;;;;;;4959172;28;20163;-87
2023/01/04 10:11:04;;;;;;;0.85;0.50;;;10.40;99.90;;;;;;5001769;28;20429;-86
2023/01/04 10:13:37;;;;;;;0.85;0.35;;;10.40;99.90;;;;;;5006187;28;20030;-87
2023/01/04 10:16:37;;;;;;;1.42;0.35;;;10.40;99.90;;;;;;4990528;28;20045;-84
2023/01/04 10:19:17;;;;;;;2.03;0.35;;;10.40;99.90;;;;;;4997113;28;20034;-85
2023/01/04 10:21:55;;;;;;;0.30;0.17;;;10.50;99.90;;;;;;4981779;28;20468;-85
2023/01/04 10:24:58;;;;;;;0.60;0.30;;;10.50;99.90;;;;;;4972432;28;20038;-87
2023/01/04 10:27:35;;;;;;;1.55;0.30;;;10.40;99.90;;;;;;5002795;28;20041;-89
2023/01/04 10:30:28;;;;;;;0.60;0.30;;;10.40;99.90;;;;;;5002800;28;20037;-90
2023/01/04 10:33:15;;;;;;;1.58;0.30;;;10.40;99.90;;;;;;5003454;28;20490;-87
2023/01/04 10:35:42;;;;;;;2.17;0.52;;;10.50;99.90;;;;;;4991664;28;20033;-88
2023/01/04 10:38:31;;;;;;;0.40;0.15;;;10.40;99.90;;;;;;4979187;28;20045;-87
2023/01/04 10:44:17;;;;;;;1.70;0.30;;;10.40;99.90;;;;;;4962427;28;20085;-87
2023/01/04 10:47:33;;;;;;;1.55;1.00;;;10.50;99.90;;;;;;4966346;28;20034;-88
2023/01/04 10:50:36;;;;;;;1.10;0.50;;;10.50;99.90;;;;;;4984867;28;20795;-87
2023/01/04 10:53:18;;;;;;;0.20;0.13;;;10.50;99.90;;;;;;4999600;28;20038;-87
2023/01/04 10:55:52;;;;;;;1.23;0.38;;;10.50;99.90;;;;;;5007663;28;20512;-88
2023/01/04 10:58:30;;;;;;;1.35;0.40;;;10.50;99.90;;;;;;4988205;28;20042;-87
2023/01/04 11:01:05;;;;;;;0.57;0.25;;;10.50;99.90;;;;;;4998328;28;20045;-88
2023/01/04 11:03:41;;;;;;;0.40;0.30;;;10.60;99.90;;;;;;4955178;28;20713;-88
2023/01/04 11:06:43;;;;;;;1.20;0.52;;;10.60;99.90;;;;;;4985163;28;20062;-91
2023/01/04 11:09:11;;;;;;;0.40;0.40;;;10.50;99.90;;;;;;4990115;28;20035;-87
2023/01/04 11:11:46;;;;;;;1.90;0.70;;;10.60;99.90;;;;;;4979569;28;20080;-87
2023/01/04 11:14:12;;;;;;;2.38;0.68;;;10.60;99.90;;;;;;4982176;28;20050;-87
2023/01/04 11:16:42;;;;;;;1.38;0.65;;;10.50;99.90;;;;;;5002219;28;20069;-88
2023/01/04 11:19:11;;;;;;;3.63;0.43;;;10.60;99.90;;;;;;4968249;28;20045;-90
2023/01/04 11:21:44;;;;;;;0.45;0.32;;;10.60;99.90;;;;;;4996986;28;20781;-87
2023/01/04 11:24:10;;;;;;;4.28;0.63;;;10.60;99.90;;;;;;4994052;28;20031;-87
2023/01/04 11:53:24;;;;;;;1.85;0.45;;;10.80;99.90;;;;;;4963266;28;20509;-86
2023/01/04 11:55:50;;;;;;;1.58;0.90;;;10.70;99.90;;;;;;4921451;28;20046;-85
2023/01/04 11:58:28;;;;;;;1.40;0.60;;;10.80;99.90;;;;;;4889723;28;20099;-85
2023/01/04 12:00:55;;;;;;;1.65;0.80;;;10.80;99.90;;;;;;4911924;28;20046;-85
2023/01/04 12:03:49;;;;;;;0.70;0.50;;;10.80;99.90;;;;;;4907810;28;20047;-86
2023/01/04 12:06:42;;;;;;;0.73;0.60;;;10.80;99.90;;;;;;4895769;29;20534;-86
2023/01/04 12:12:41;;;;;;;3.15;0.82;;;10.80;99.90;;;;;;4835396;29;20101;-85
2023/01/04 12:15:13;;;;;;;0.50;0.50;;;10.80;99.90;;;;;;4888129;29;20404;-87
2023/01/04 12:17:54;;;;;;;0.60;0.40;;;10.90;99.90;;;;;;4908064;29;20059;-87
2023/01/04 12:20:50;;;;;;;1.25;0.73;;;10.90;99.90;;;;;;4926673;29;20074;-87
2023/01/04 12:26:41;;;;;;;1.65;0.90;;;10.80;99.90;;;;;;4942446;29;20042;-87
2023/01/04 12:29:21;;;;;;;0.55;0.30;;;10.90;99.90;;;;;;4902497;29;20582;-87
2023/01/04 12:31:50;;;;;;;3.55;0.40;;;11.00;99.90;;;;;;4928711;29;20122;-87
2023/01/04 12:34:26;;;;;;;0.75;0.32;;;10.90;99.90;;;;;;4938645;28;20400;-87
2023/01/04 12:36:56;;;;;;;1.75;0.40;;;10.90;99.90;;;;;;4910875;29;20432;-88
2023/01/04 12:39:42;;;;;;;0.70;0.55;;;10.90;99.90;;;;;;4920175;29;20039;-87
2023/01/04 12:42:23;;;;;;;0.32;0.30;;;10.80;99.90;;;;;;4910612;29;20511;-88
2023/01/04 12:44:50;;;;;;;3.88;0.52;;;10.90;99.90;;;;;;4890357;29;20031;-87
2023/01/04 12:51:15;;;;;;;0.55;0.32;;;10.90;99.90;;;;;;4941548;29;20656;-87
2023/01/04 12:53:59;;;;;;;0.75;0.40;;;10.90;99.90;;;;;;4938880;29;20035;-88
2023/01/04 12:57:10;;;;;;;2.17;0.40;;;10.90;99.90;;;;;;4940076;29;20027;-87
2023/01/04 12:59:51;;;;;;;2.45;0.40;;;10.90;99.90;;;;;;4942591;29;20540;-87
2023/01/04 13:02:54;;;;;;;0.85;0.40;;;10.90;99.90;;;;;;4896553;29;20480;-87
2023/01/04 13:05:19;;;;;;;2.28;0.57;;;10.90;99.90;;;;;;4926585;29;20039;-87
2023/01/04 13:07:55;;;;;;;0.55;0.35;;;11.00;99.90;;;;;;5008841;23;20428;-87
2023/01/04 13:10:32;;;;;;;;;;;11.00;99.90;;;;;;4913256;28;20039;-87
2023/01/04 13:13:34;;;;;;;1.38;0.40;;;11.00;99.90;;;;;;4932488;28;19941;-87
2023/01/04 13:19:46;;;;;;;1.15;0.40;;;11.00;99.90;;;;;;4915875;29;20096;-87
2023/01/04 13:22:25;;;;;;;0.10;0.03;;;11.00;99.90;;;;;;4897187;29;20099;-87
2023/01/04 13:24:50;;;;;;;0.22;0.22;;;11.00;99.90;;;;;;4921162;28;20455;-87
2023/01/04 13:27:20;;;;;;;0.75;0.40;;;10.90;99.90;;;;;;4925570;28;20019;-87
2023/01/04 13:29:46;;;;;;;0.60;0.30;;;11.00;99.90;;;;;;4946829;28;20039;-87
2023/01/04 13:32:15;;;;;;;0.22;0.22;;;11.10;99.90;;;;;;4908217;28;20047;-84
2023/01/04 13:34:52;;;;;;;0.22;0.22;;;11.10;99.90;;;;;;4915380;29;20082;-85
2023/01/04 13:37:37;;;;;;;0.73;0.20;;;11.10;99.90;;;;;;4916257;28;20118;-87
2023/01/04 13:40:24;;;;;;;1.15;0.40;;;11.10;99.90;;;;;;4964032;28;20038;-87
2023/01/04 13:43:14;;;;;;;0.40;0.40;;;11.10;99.90;;;;;;4915946;28;20444;-85
2023/01/04 13:45:45;;;;;;;0.43;0.32;;;11.10;99.90;;;;;;4963918;28;20695;-85
2023/01/04 13:48:14;;;;;;;0.20;0.20;;;11.10;99.90;;;;;;4944090;28;20344;-84
2023/01/04 13:50:46;;;;;;;0.20;0.20;;;11.20;99.90;;;;;;4937469;28;20035;-85
2023/01/04 13:53:21;;;;;;;0.32;0.30;;;11.20;99.90;;;;;;4935124;28;20035;-85
2023/01/04 13:56:01;;;;;;;0.38;0.22;;;11.20;99.90;;;;;;4943369;28;20475;-87
2023/01/04 13:58:29;;;;;;;0.55;0.10;;;11.10;99.90;;;;;;4936975;28;20043;-85
2023/01/04 14:01:35;;;;;;;0.25;0.17;;;11.20;99.90;;;;;;4916548;28;20035;-85
2023/01/04 14:04:05;;;;;;;0.98;0.30;;;11.20;99.90;;;;;;4949142;28;20046;-85
2023/01/04 14:06:59;;;;;;;0.30;0.25;;;11.20;99.90;;;;;;4898192;28;20347;-85
2023/01/04 14:09:29;;;;;;;0.60;0.40;;;11.20;99.90;;;;;;4929606;28;20472;-86
2023/01/04 14:11:58;;;;;;;0.28;0.28;;;11.20;99.90;;;;;;4919026;28;20032;-87
2023/01/04 14:14:30;;;;;;;0.30;0.30;;;11.20;99.90;;;;;;4914953;28;20037;-84
2023/01/04 14:17:12;;;;;;;0.28;0.28;;;11.30;99.90;;;;;;4948058;28;20035;-84
2023/01/04 14:19:41;;;;;;;0.65;0.30;;;11.20;99.90;;;;;;4947146;28;20035;-84
2023/01/04 14:22:31;;;;;;;0.47;0.38;;;11.30;99.90;;;;;;4925334;28;20050;-84
2023/01/04 14:24:57;;;;;;;0.30;0.30;;;11.20;99.90;;;;;;4942460;28;20039;-85
2023/01/04 14:27:37;;;;;;;0.75;0.20;;;11.20;99.90;;;;;;4914756;28;20031;-85
2023/01/04 14:30:24;;;;;;;0.38;0.38;;;11.30;99.90;;;;;;4944205;28;20051;-85
2023/01/04 14:33:14;;;;;;;1.38;0.60;;;11.30;99.90;;;;;;4947917;28;20035;-85
2023/01/04 14:35:40;;;;;;;1.48;0.30;;;11.20;99.90;;;;;;4940755;28;20099;-83
2023/01/04 14:38:13;;;;;;;0.35;0.35;;;11.20;99.90;;;;;;4931327;28;20043;-85
2023/01/04 14:40:39;;;;;;;1.05;0.45;;;11.20;99.90;;;;;;4950748;28;20045;-83
2023/01/04 14:43:35;;;;;;;0.40;0.40;;;11.20;99.90;;;;;;4933503;28;20039;-84
2023/01/04 14:46:01;;;;;;;0.75;0.50;;;11.20;99.90;;;;;;4928353;28;20450;-84